LFTW 301030Z AUTO 19008KT 140V240 CAVOK 23/09 Q1017 NOSIG

ElémentsDécodage
LFTW Station météo située sur l'aérodrome de NIMES Garons
301030Z émis le 30 du mois à 10h30 UTC
AUTO Bulletin édité par un automate
19008KT vent du 190°, 08 noeuds
140V240 vent de direction variable entre 140° et 240°
CAVOK Ceiling And Visibility OK
- Visibilité de 10 Km ou plus
- Pas de nuage au-dessous de 1500m ou au-dessous de l'altitude minimale du secteur la plus élevée (si>1500m) et absence de CB
- pas de temps présent significatif
23/09 température 23°C, point de rosée 09°C
 soit une humidité relative de 41%
Q1017 la pression au niveau de la mer (QNH) est de 1017 hPa
NOSIG Pas de changement significatif prévu au cours des deux heures suivant l'heure de l'observation